sensor_id;sensor_type;location;lat;lon;timestamp;P1;durP1;ratioP1;P2;durP2;ratioP2
47772;SDS011;33534;51.028;13.716;2024-03-02T00:00:04;263.10;;;182.07;;
47772;SDS011;33534;51.028;13.716;2024-03-02T00:02:41;264.92;;;182.90;;
47772;SDS011;33534;51.028;13.716;2024-03-02T00:05:07;261.92;;;181.45;;
47772;SDS011;33534;51.028;13.716;2024-03-02T00:07:36;261.40;;;184.98;;
47772;SDS011;33534;51.028;13.716;2024-03-02T00:10:04;265.48;;;181.27;;
47772;SDS011;33534;51.028;13.716;2024-03-02T00:12:35;260.33;;;176.98;;
47772;SDS011;33534;51.028;13.716;2024-03-02T00:15:03;256.83;;;178.88;;
47772;SDS011;33534;51.028;13.716;2024-03-02T00:17:31;252.18;;;174.77;;
47772;SDS011;33534;51.028;13.716;2024-03-02T00:19:57;253.00;;;175.55;;
47772;SDS011;33534;51.028;13.716;2024-03-02T00:22:23;252.38;;;175.00;;
47772;SDS011;33534;51.028;13.716;2024-03-02T00:24:48;251.48;;;173.02;;
47772;SDS011;33534;51.028;13.716;2024-03-02T00:27:14;246.25;;;172.75;;
47772;SDS011;33534;51.028;13.716;2024-03-02T00:29:42;247.05;;;170.90;;
47772;SDS011;33534;51.028;13.716;2024-03-02T00:32:12;241.95;;;168.15;;
47772;SDS011;33534;51.028;13.716;2024-03-02T00:34:40;249.70;;;172.75;;
47772;SDS011;33534;51.028;13.716;2024-03-02T00:37:06;244.57;;;167.20;;
47772;SDS011;33534;51.028;13.716;2024-03-02T00:39:32;238.52;;;167.05;;
47772;SDS011;33534;51.028;13.716;2024-03-02T00:41:58;235.63;;;167.60;;
47772;SDS011;33534;51.028;13.716;2024-03-02T00:44:25;239.13;;;166.07;;
47772;SDS011;33534;51.028;13.716;2024-03-02T00:46:59;229.10;;;159.50;;
47772;SDS011;33534;51.028;13.716;2024-03-02T00:49:25;234.98;;;163.93;;
47772;SDS011;33534;51.028;13.716;2024-03-02T00:51:53;232.48;;;160.38;;
47772;SDS011;33534;51.028;13.716;2024-03-02T00:54:20;231.60;;;160.15;;
47772;SDS011;33534;51.028;13.716;2024-03-02T00:56:48;227.45;;;156.20;;
47772;SDS011;33534;51.028;13.716;2024-03-02T00:59:14;226.60;;;159.35;;
47772;SDS011;33534;51.028;13.716;2024-03-02T01:01:40;226.27;;;155.88;;
47772;SDS011;33534;51.028;13.716;2024-03-02T01:04:07;228.27;;;155.77;;
47772;SDS011;33534;51.028;13.716;2024-03-02T01:06:32;227.75;;;157.25;;
47772;SDS011;33534;51.028;13.716;2024-03-02T01:08:58;228.55;;;156.00;;
47772;SDS011;33534;51.028;13.716;2024-03-02T01:11:24;223.88;;;153.88;;
47772;SDS011;33534;51.028;13.716;2024-03-02T01:13:50;224.90;;;154.68;;
47772;SDS011;33534;51.028;13.716;2024-03-02T01:16:17;221.55;;;152.43;;
47772;SDS011;33534;51.028;13.716;2024-03-02T01:18:42;212.80;;;149.50;;
47772;SDS011;33534;51.028;13.716;2024-03-02T01:21:08;215.77;;;149.32;;
47772;SDS011;33534;51.028;13.716;2024-03-02T01:23:34;211.20;;;150.25;;
47772;SDS011;33534;51.028;13.716;2024-03-02T01:25:59;217.48;;;150.20;;
47772;SDS011;33534;51.028;13.716;2024-03-02T01:28:25;210.52;;;147.23;;
47772;SDS011;33534;51.028;13.716;2024-03-02T01:30:51;212.10;;;146.52;;
47772;SDS011;33534;51.028;13.716;2024-03-02T01:33:17;214.60;;;147.63;;
47772;SDS011;33534;51.028;13.716;2024-03-02T01:35:44;215.93;;;150.32;;
47772;SDS011;33534;51.028;13.716;2024-03-02T01:38:10;206.70;;;143.63;;
47772;SDS011;33534;51.028;13.716;2024-03-02T01:40:36;208.98;;;144.32;;
47772;SDS011;33534;51.028;13.716;2024-03-02T01:43:03;205.82;;;143.85;;
47772;SDS011;33534;51.028;13.716;2024-03-02T01:45:29;199.68;;;139.85;;
47772;SDS011;33534;51.028;13.716;2024-03-02T01:47:58;207.20;;;143.93;;
47772;SDS011;33534;51.028;13.716;2024-03-02T01:50:27;199.52;;;139.02;;
47772;SDS011;33534;51.028;13.716;2024-03-02T01:52:54;202.60;;;142.50;;
47772;SDS011;33534;51.028;13.716;2024-03-02T01:55:20;201.82;;;138.18;;
47772;SDS011;33534;51.028;13.716;2024-03-02T01:57:46;197.27;;;135.70;;
47772;SDS011;33534;51.028;13.716;2024-03-02T02:00:13;200.80;;;139.35;;
47772;SDS011;33534;51.028;13.716;2024-03-02T02:02:39;200.98;;;138.85;;
47772;SDS011;33534;51.028;13.716;2024-03-02T02:05:05;195.60;;;133.48;;
47772;SDS011;33534;51.028;13.716;2024-03-02T02:07:31;197.88;;;138.10;;
47772;SDS011;33534;51.028;13.716;2024-03-02T02:09:57;198.73;;;136.13;;
47772;SDS011;33534;51.028;13.716;2024-03-02T02:12:23;189.68;;;132.05;;
47772;SDS011;33534;51.028;13.716;2024-03-02T02:14:49;192.25;;;131.98;;
47772;SDS011;33534;51.028;13.716;2024-03-02T02:17:15;185.85;;;129.93;;
47772;SDS011;33534;51.028;13.716;2024-03-02T02:19:41;189.60;;;131.30;;
47772;SDS011;33534;51.028;13.716;2024-03-02T02:22:07;187.95;;;130.68;;
47772;SDS011;33534;51.028;13.716;2024-03-02T02:24:39;185.68;;;130.00;;
47772;SDS011;33534;51.028;13.716;2024-03-02T02:27:06;182.20;;;129.88;;
47772;SDS011;33534;51.028;13.716;2024-03-02T02:29:31;182.85;;;127.38;;
47772;SDS011;33534;51.028;13.716;2024-03-02T02:31:57;183.20;;;127.32;;
47772;SDS011;33534;51.028;13.716;2024-03-02T02:34:23;179.18;;;126.38;;
47772;SDS011;33534;51.028;13.716;2024-03-02T02:36:48;178.38;;;123.90;;
47772;SDS011;33534;51.028;13.716;2024-03-02T02:39:15;182.00;;;124.47;;
47772;SDS011;33534;51.028;13.716;2024-03-02T02:41:42;181.00;;;125.40;;
47772;SDS011;33534;51.028;13.716;2024-03-02T02:44:08;171.05;;;120.25;;
47772;SDS011;33534;51.028;13.716;2024-03-02T02:46:36;172.07;;;120.65;;
47772;SDS011;33534;51.028;13.716;2024-03-02T02:49:03;172.68;;;121.28;;
47772;SDS011;33534;51.028;13.716;2024-03-02T02:51:28;171.00;;;122.03;;
47772;SDS011;33534;51.028;13.716;2024-03-02T02:53:54;172.02;;;120.65;;
47772;SDS011;33534;51.028;13.716;2024-03-02T02:56:19;167.40;;;119.30;;
47772;SDS011;33534;51.028;13.716;2024-03-02T02:58:45;163.10;;;118.32;;
47772;SDS011;33534;51.028;13.716;2024-03-02T03:01:11;174.32;;;122.18;;
47772;SDS011;33534;51.028;13.716;2024-03-02T03:03:36;166.45;;;117.43;;
47772;SDS011;33534;51.028;13.716;2024-03-02T03:06:02;165.57;;;114.75;;
47772;SDS011;33534;51.028;13.716;2024-03-02T03:08:28;165.48;;;116.30;;
47772;SDS011;33534;51.028;13.716;2024-03-02T03:10:54;166.32;;;115.40;;
47772;SDS011;33534;51.028;13.716;2024-03-02T03:13:19;164.25;;;115.30;;
47772;SDS011;33534;51.028;13.716;2024-03-02T03:15:45;162.15;;;113.78;;
47772;SDS011;33534;51.028;13.716;2024-03-02T03:18:11;160.00;;;111.65;;
47772;SDS011;33534;51.028;13.716;2024-03-02T03:20:36;161.85;;;113.60;;
47772;SDS011;33534;51.028;13.716;2024-03-02T03:23:02;154.80;;;109.70;;
47772;SDS011;33534;51.028;13.716;2024-03-02T03:25:29;156.80;;;108.78;;
47772;SDS011;33534;51.028;13.716;2024-03-02T03:27:55;154.15;;;110.38;;
47772;SDS011;33534;51.028;13.716;2024-03-02T03:30:20;154.77;;;110.72;;
47772;SDS011;33534;51.028;13.716;2024-03-02T03:32:46;159.73;;;110.88;;
47772;SDS011;33534;51.028;13.716;2024-03-02T03:35:13;155.30;;;109.47;;
47772;SDS011;33534;51.028;13.716;2024-03-02T03:37:40;155.98;;;108.40;;
47772;SDS011;33534;51.028;13.716;2024-03-02T03:40:06;153.98;;;107.65;;
47772;SDS011;33534;51.028;13.716;2024-03-02T03:42:39;146.82;;;106.07;;
47772;SDS011;33534;51.028;13.716;2024-03-02T03:45:04;149.55;;;103.93;;
47772;SDS011;33534;51.028;13.716;2024-03-02T03:47:31;149.68;;;105.65;;
47772;SDS011;33534;51.028;13.716;2024-03-02T03:49:57;144.80;;;103.03;;
47772;SDS011;33534;51.028;13.716;2024-03-02T03:52:23;148.73;;;105.35;;
47772;SDS011;33534;51.028;13.716;2024-03-02T03:54:49;148.05;;;105.25;;
47772;SDS011;33534;51.028;13.716;2024-03-02T03:57:15;147.35;;;104.10;;
47772;SDS011;33534;51.028;13.716;2024-03-02T03:59:41;144.48;;;103.32;;
47772;SDS011;33534;51.028;13.716;2024-03-02T04:02:07;143.55;;;99.22;;
47772;SDS011;33534;51.028;13.716;2024-03-02T04:04:33;141.00;;;99.88;;
47772;SDS011;33534;51.028;13.716;2024-03-02T04:06:59;145.85;;;101.28;;
47772;SDS011;33534;51.028;13.716;2024-03-02T04:09:24;141.02;;;99.30;;
47772;SDS011;33534;51.028;13.716;2024-03-02T04:11:50;138.98;;;98.32;;
47772;SDS011;33534;51.028;13.716;2024-03-02T04:14:16;141.88;;;100.22;;
47772;SDS011;33534;51.028;13.716;2024-03-02T04:16:42;141.02;;;98.70;;
47772;SDS011;33534;51.028;13.716;2024-03-02T04:19:07;138.48;;;97.72;;
47772;SDS011;33534;51.028;13.716;2024-03-02T04:21:33;132.50;;;95.15;;
47772;SDS011;33534;51.028;13.716;2024-03-02T04:23:59;135.50;;;96.25;;
47772;SDS011;33534;51.028;13.716;2024-03-02T04:26:25;139.18;;;97.78;;
47772;SDS011;33534;51.028;13.716;2024-03-02T04:28:51;131.88;;;94.68;;
47772;SDS011;33534;51.028;13.716;2024-03-02T04:31:17;128.48;;;92.00;;
47772;SDS011;33534;51.028;13.716;2024-03-02T04:33:43;135.07;;;94.80;;
47772;SDS011;33534;51.028;13.716;2024-03-02T04:36:09;131.95;;;93.53;;
47772;SDS011;33534;51.028;13.716;2024-03-02T04:38:35;128.35;;;90.97;;
47772;SDS011;33534;51.028;13.716;2024-03-02T04:41:01;131.18;;;94.38;;
47772;SDS011;33534;51.028;13.716;2024-03-02T04:43:26;131.65;;;92.43;;
47772;SDS011;33534;51.028;13.716;2024-03-02T04:45:52;125.40;;;90.90;;
47772;SDS011;33534;51.028;13.716;2024-03-02T04:48:17;126.78;;;89.72;;
47772;SDS011;33534;51.028;13.716;2024-03-02T04:50:44;125.15;;;90.60;;
47772;SDS011;33534;51.028;13.716;2024-03-02T04:53:10;125.40;;;90.28;;
47772;SDS011;33534;51.028;13.716;2024-03-02T04:55:35;126.03;;;88.25;;
47772;SDS011;33534;51.028;13.716;2024-03-02T04:58:04;121.05;;;87.18;;
47772;SDS011;33534;51.028;13.716;2024-03-02T05:00:30;123.25;;;88.03;;
47772;SDS011;33534;51.028;13.716;2024-03-02T05:02:55;123.35;;;85.57;;
47772;SDS011;33534;51.028;13.716;2024-03-02T05:05:21;122.50;;;87.10;;
47772;SDS011;33534;51.028;13.716;2024-03-02T05:07:46;120.57;;;83.65;;
47772;SDS011;33534;51.028;13.716;2024-03-02T05:10:12;116.78;;;84.30;;
47772;SDS011;33534;51.028;13.716;2024-03-02T05:12:38;118.10;;;83.25;;
47772;SDS011;33534;51.028;13.716;2024-03-02T05:15:07;121.05;;;83.22;;
47772;SDS011;33534;51.028;13.716;2024-03-02T05:17:35;115.43;;;83.32;;
47772;SDS011;33534;51.028;13.716;2024-03-02T05:20:01;114.30;;;81.18;;
47772;SDS011;33534;51.028;13.716;2024-03-02T05:22:27;118.53;;;82.75;;
47772;SDS011;33534;51.028;13.716;2024-03-02T05:24:52;109.85;;;79.72;;
47772;SDS011;33534;51.028;13.716;2024-03-02T05:27:18;115.00;;;80.00;;
47772;SDS011;33534;51.028;13.716;2024-03-02T05:29:43;119.97;;;78.93;;
47772;SDS011;33534;51.028;13.716;2024-03-02T05:32:09;117.60;;;82.20;;
47772;SDS011;33534;51.028;13.716;2024-03-02T05:34:35;112.72;;;78.00;;
47772;SDS011;33534;51.028;13.716;2024-03-02T05:37:01;108.00;;;75.65;;
47772;SDS011;33534;51.028;13.716;2024-03-02T05:39:26;116.75;;;76.50;;
47772;SDS011;33534;51.028;13.716;2024-03-02T05:41:52;113.22;;;74.57;;
47772;SDS011;33534;51.028;13.716;2024-03-02T05:44:18;109.07;;;76.50;;
47772;SDS011;33534;51.028;13.716;2024-03-02T05:46:44;106.25;;;74.05;;
47772;SDS011;33534;51.028;13.716;2024-03-02T05:49:10;102.45;;;73.40;;
47772;SDS011;33534;51.028;13.716;2024-03-02T05:51:36;103.13;;;72.90;;
47772;SDS011;33534;51.028;13.716;2024-03-02T05:54:01;104.15;;;71.60;;
47772;SDS011;33534;51.028;13.716;2024-03-02T05:56:27;106.10;;;73.45;;
47772;SDS011;33534;51.028;13.716;2024-03-02T05:58:53;104.18;;;70.10;;
47772;SDS011;33534;51.028;13.716;2024-03-02T06:01:48;60.40;;;43.65;;
47772;SDS011;33534;51.028;13.716;2024-03-02T06:04:15;46.40;;;34.80;;
47772;SDS011;33534;51.028;13.716;2024-03-02T06:06:41;44.60;;;34.80;;
47772;SDS011;33534;51.028;13.716;2024-03-02T06:09:07;44.35;;;34.40;;
47772;SDS011;33534;51.028;13.716;2024-03-02T06:11:36;45.47;;;35.22;;
47772;SDS011;33534;51.028;13.716;2024-03-02T06:14:03;44.70;;;35.72;;
47772;SDS011;33534;51.028;13.716;2024-03-02T06:16:29;47.83;;;34.60;;
47772;SDS011;33534;51.028;13.716;2024-03-02T06:18:55;47.38;;;36.35;;
47772;SDS011;33534;51.028;13.716;2024-03-02T06:21:23;42.72;;;32.85;;
47772;SDS011;33534;51.028;13.716;2024-03-02T06:23:49;46.72;;;34.95;;
47772;SDS011;33534;51.028;13.716;2024-03-02T06:26:15;43.63;;;34.25;;
47772;SDS011;33534;51.028;13.716;2024-03-02T06:28:41;41.35;;;31.55;;
47772;SDS011;33534;51.028;13.716;2024-03-02T06:31:11;39.90;;;30.55;;
47772;SDS011;33534;51.028;13.716;2024-03-02T06:33:37;44.05;;;32.25;;
47772;SDS011;33534;51.028;13.716;2024-03-02T06:36:03;45.75;;;32.20;;
47772;SDS011;33534;51.028;13.716;2024-03-02T06:38:29;54.60;;;37.88;;
47772;SDS011;33534;51.028;13.716;2024-03-02T06:40:58;59.00;;;39.75;;
47772;SDS011;33534;51.028;13.716;2024-03-02T06:43:24;60.90;;;42.33;;
47772;SDS011;33534;51.028;13.716;2024-03-02T06:45:50;60.35;;;41.15;;
47772;SDS011;33534;51.028;13.716;2024-03-02T06:48:17;55.08;;;38.00;;
47772;SDS011;33534;51.028;13.716;2024-03-02T06:50:47;56.20;;;39.80;;
47772;SDS011;33534;51.028;13.716;2024-03-02T06:53:14;57.78;;;38.05;;
47772;SDS011;33534;51.028;13.716;2024-03-02T06:55:42;53.97;;;37.50;;
47772;SDS011;33534;51.028;13.716;2024-03-02T06:58:12;52.17;;;35.90;;
47772;SDS011;33534;51.028;13.716;2024-03-02T07:00:40;51.03;;;35.22;;
47772;SDS011;33534;51.028;13.716;2024-03-02T07:03:05;50.45;;;35.10;;
47772;SDS011;33534;51.028;13.716;2024-03-02T07:05:31;54.15;;;33.28;;
47772;SDS011;33534;51.028;13.716;2024-03-02T07:07:57;48.67;;;34.28;;
47772;SDS011;33534;51.028;13.716;2024-03-02T07:10:22;49.67;;;33.97;;
47772;SDS011;33534;51.028;13.716;2024-03-02T07:12:48;49.13;;;33.08;;
47772;SDS011;33534;51.028;13.716;2024-03-02T07:15:13;45.63;;;31.85;;
47772;SDS011;33534;51.028;13.716;2024-03-02T07:17:57;44.72;;;30.40;;
47772;SDS011;33534;51.028;13.716;2024-03-02T07:20:23;46.15;;;30.23;;
47772;SDS011;33534;51.028;13.716;2024-03-02T07:22:49;45.50;;;30.23;;
47772;SDS011;33534;51.028;13.716;2024-03-02T07:25:14;46.25;;;30.65;;
47772;SDS011;33534;51.028;13.716;2024-03-02T07:27:40;42.55;;;27.92;;
47772;SDS011;33534;51.028;13.716;2024-03-02T07:30:06;38.75;;;28.98;;
47772;SDS011;33534;51.028;13.716;2024-03-02T07:32:32;40.08;;;28.27;;
47772;SDS011;33534;51.028;13.716;2024-03-02T07:34:57;37.67;;;27.15;;
47772;SDS011;33534;51.028;13.716;2024-03-02T07:37:23;43.95;;;28.67;;
47772;SDS011;33534;51.028;13.716;2024-03-02T07:39:49;43.40;;;28.45;;
47772;SDS011;33534;51.028;13.716;2024-03-02T07:42:16;41.58;;;28.10;;
47772;SDS011;33534;51.028;13.716;2024-03-02T07:44:43;35.47;;;25.80;;
47772;SDS011;33534;51.028;13.716;2024-03-02T07:47:09;35.30;;;26.15;;
47772;SDS011;33534;51.028;13.716;2024-03-02T07:49:35;37.88;;;27.00;;
47772;SDS011;33534;51.028;13.716;2024-03-02T07:52:00;38.45;;;26.42;;
47772;SDS011;33534;51.028;13.716;2024-03-02T07:54:26;38.10;;;27.02;;
47772;SDS011;33534;51.028;13.716;2024-03-02T07:56:51;38.00;;;26.65;;
47772;SDS011;33534;51.028;13.716;2024-03-02T07:59:17;36.15;;;25.73;;
47772;SDS011;33534;51.028;13.716;2024-03-02T08:01:43;33.63;;;24.90;;
47772;SDS011;33534;51.028;13.716;2024-03-02T08:04:08;37.30;;;27.02;;
47772;SDS011;33534;51.028;13.716;2024-03-02T08:06:34;36.47;;;25.85;;
47772;SDS011;33534;51.028;13.716;2024-03-02T08:09:00;31.85;;;23.75;;
47772;SDS011;33534;51.028;13.716;2024-03-02T08:11:26;33.60;;;25.10;;
47772;SDS011;33534;51.028;13.716;2024-03-02T08:13:52;35.58;;;24.73;;
47772;SDS011;33534;51.028;13.716;2024-03-02T08:16:20;30.75;;;23.30;;
47772;SDS011;33534;51.028;13.716;2024-03-02T08:18:47;30.00;;;22.67;;
47772;SDS011;33534;51.028;13.716;2024-03-02T08:21:17;33.15;;;23.98;;
47772;SDS011;33534;51.028;13.716;2024-03-02T08:23:43;33.17;;;23.77;;
47772;SDS011;33534;51.028;13.716;2024-03-02T08:26:09;32.55;;;23.08;;
47772;SDS011;33534;51.028;13.716;2024-03-02T08:28:35;33.83;;;23.10;;
47772;SDS011;33534;51.028;13.716;2024-03-02T08:31:02;32.05;;;23.05;;
47772;SDS011;33534;51.028;13.716;2024-03-02T08:33:28;28.75;;;21.95;;
47772;SDS011;33534;51.028;13.716;2024-03-02T08:35:54;28.65;;;22.08;;
47772;SDS011;33534;51.028;13.716;2024-03-02T08:38:19;30.33;;;23.25;;
47772;SDS011;33534;51.028;13.716;2024-03-02T08:40:45;32.30;;;21.80;;
47772;SDS011;33534;51.028;13.716;2024-03-02T08:43:11;28.45;;;21.90;;
47772;SDS011;33534;51.028;13.716;2024-03-02T08:45:37;31.63;;;22.48;;
47772;SDS011;33534;51.028;13.716;2024-03-02T08:48:04;28.15;;;21.33;;
47772;SDS011;33534;51.028;13.716;2024-03-02T08:50:32;27.48;;;20.23;;
47772;SDS011;33534;51.028;13.716;2024-03-02T08:52:57;29.67;;;20.77;;
47772;SDS011;33534;51.028;13.716;2024-03-02T08:55:23;29.77;;;20.33;;
47772;SDS011;33534;51.028;13.716;2024-03-02T08:57:48;28.08;;;20.67;;
47772;SDS011;33534;51.028;13.716;2024-03-02T09:00:15;28.30;;;20.67;;
47772;SDS011;33534;51.028;13.716;2024-03-02T09:02:43;29.10;;;20.85;;
47772;SDS011;33534;51.028;13.716;2024-03-02T09:05:09;28.25;;;20.48;;
47772;SDS011;33534;51.028;13.716;2024-03-02T09:07:35;27.08;;;20.48;;
47772;SDS011;33534;51.028;13.716;2024-03-02T09:10:00;24.23;;;17.70;;
47772;SDS011;33534;51.028;13.716;2024-03-02T09:12:26;22.55;;;17.38;;
47772;SDS011;33534;51.028;13.716;2024-03-02T09:14:51;23.02;;;17.02;;
47772;SDS011;33534;51.028;13.716;2024-03-02T09:17:17;27.95;;;17.38;;
47772;SDS011;33534;51.028;13.716;2024-03-02T09:19:43;27.02;;;18.40;;
47772;SDS011;33534;51.028;13.716;2024-03-02T09:22:08;30.23;;;18.15;;
47772;SDS011;33534;51.028;13.716;2024-03-02T09:24:34;23.40;;;17.88;;
47772;SDS011;33534;51.028;13.716;2024-03-02T09:27:00;21.08;;;16.23;;
47772;SDS011;33534;51.028;13.716;2024-03-02T09:29:25;26.45;;;17.05;;
47772;SDS011;33534;51.028;13.716;2024-03-02T09:31:51;23.05;;;15.20;;
47772;SDS011;33534;51.028;13.716;2024-03-02T09:34:17;21.95;;;16.75;;
47772;SDS011;33534;51.028;13.716;2024-03-02T09:36:42;23.10;;;16.50;;
47772;SDS011;33534;51.028;13.716;2024-03-02T09:39:08;23.58;;;15.80;;
47772;SDS011;33534;51.028;13.716;2024-03-02T09:41:37;22.98;;;16.73;;
47772;SDS011;33534;51.028;13.716;2024-03-02T09:44:04;20.30;;;15.90;;
47772;SDS011;33534;51.028;13.716;2024-03-02T09:46:30;21.90;;;15.73;;
47772;SDS011;33534;51.028;13.716;2024-03-02T09:48:56;25.75;;;14.80;;
47772;SDS011;33534;51.028;13.716;2024-03-02T09:51:22;21.95;;;15.95;;
47772;SDS011;33534;51.028;13.716;2024-03-02T09:53:48;20.77;;;15.57;;
47772;SDS011;33534;51.028;13.716;2024-03-02T09:56:14;29.27;;;15.32;;
47772;SDS011;33534;51.028;13.716;2024-03-02T09:58:41;21.45;;;15.60;;
47772;SDS011;33534;51.028;13.716;2024-03-02T10:01:07;34.10;;;15.57;;
47772;SDS011;33534;51.028;13.716;2024-03-02T10:03:35;27.67;;;15.43;;
47772;SDS011;33534;51.028;13.716;2024-03-02T10:08:46;24.17;;;15.18;;
47772;SDS011;33534;51.028;13.716;2024-03-02T10:11:26;24.45;;;15.27;;
47772;SDS011;33534;51.028;13.716;2024-03-02T10:16:37;24.05;;;14.07;;
47772;SDS011;33534;51.028;13.716;2024-03-02T10:21:49;27.92;;;14.93;;
47772;SDS011;33534;51.028;13.716;2024-03-02T10:24:16;29.88;;;15.68;;
47772;SDS011;33534;51.028;13.716;2024-03-02T10:26:42;24.75;;;14.52;;
47772;SDS011;33534;51.028;13.716;2024-03-02T10:29:09;29.85;;;14.05;;
47772;SDS011;33534;51.028;13.716;2024-03-02T10:31:36;20.75;;;13.63;;
47772;SDS011;33534;51.028;13.716;2024-03-02T10:34:06;25.50;;;13.75;;
47772;SDS011;33534;51.028;13.716;2024-03-02T10:36:36;22.60;;;14.13;;
47772;SDS011;33534;51.028;13.716;2024-03-02T10:39:03;19.73;;;13.15;;
47772;SDS011;33534;51.028;13.716;2024-03-02T10:41:32;24.88;;;14.18;;
47772;SDS011;33534;51.028;13.716;2024-03-02T10:43:59;21.70;;;12.10;;
47772;SDS011;33534;51.028;13.716;2024-03-02T10:46:31;23.90;;;12.93;;
47772;SDS011;33534;51.028;13.716;2024-03-02T10:48:58;21.20;;;13.45;;
47772;SDS011;33534;51.028;13.716;2024-03-02T10:51:25;23.02;;;12.43;;
47772;SDS011;33534;51.028;13.716;2024-03-02T10:56:27;16.67;;;12.13;;
47772;SDS011;33534;51.028;13.716;2024-03-02T11:01:40;23.50;;;12.82;;
47772;SDS011;33534;51.028;13.716;2024-03-02T11:04:09;21.65;;;12.48;;
47772;SDS011;33534;51.028;13.716;2024-03-02T11:06:37;27.60;;;13.10;;
47772;SDS011;33534;51.028;13.716;2024-03-02T11:09:06;22.38;;;13.70;;
47772;SDS011;33534;51.028;13.716;2024-03-02T11:11:39;19.52;;;12.75;;
47772;SDS011;33534;51.028;13.716;2024-03-02T11:14:09;23.20;;;12.98;;
47772;SDS011;33534;51.028;13.716;2024-03-02T11:16:41;21.23;;;12.20;;
47772;SDS011;33534;51.028;13.716;2024-03-02T11:19:11;21.48;;;12.00;;
47772;SDS011;33534;51.028;13.716;2024-03-02T11:21:38;19.80;;;12.07;;
47772;SDS011;33534;51.028;13.716;2024-03-02T11:26:49;16.95;;;10.88;;
47772;SDS011;33534;51.028;13.716;2024-03-02T11:32:02;17.02;;;11.68;;
47772;SDS011;33534;51.028;13.716;2024-03-02T11:34:32;19.08;;;12.02;;
47772;SDS011;33534;51.028;13.716;2024-03-02T11:37:00;26.13;;;11.97;;
47772;SDS011;33534;51.028;13.716;2024-03-02T11:39:30;17.80;;;11.48;;
47772;SDS011;33534;51.028;13.716;2024-03-02T11:41:56;20.17;;;11.63;;
47772;SDS011;33534;51.028;13.716;2024-03-02T11:44:22;17.02;;;10.88;;
47772;SDS011;33534;51.028;13.716;2024-03-02T11:47:01;16.95;;;10.55;;
47772;SDS011;33534;51.028;13.716;2024-03-02T11:49:46;19.33;;;11.65;;
47772;SDS011;33534;51.028;13.716;2024-03-02T11:52:16;14.27;;;10.32;;
47772;SDS011;33534;51.028;13.716;2024-03-02T11:54:46;15.25;;;11.02;;
47772;SDS011;33534;51.028;13.716;2024-03-02T11:57:16;16.05;;;10.18;;
47772;SDS011;33534;51.028;13.716;2024-03-02T11:59:47;14.90;;;10.63;;
47772;SDS011;33534;51.028;13.716;2024-03-02T12:02:18;14.73;;;10.27;;
47772;SDS011;33534;51.028;13.716;2024-03-02T12:04:45;17.53;;;10.37;;
47772;SDS011;33534;51.028;13.716;2024-03-02T12:07:17;18.00;;;10.52;;
47772;SDS011;33534;51.028;13.716;2024-03-02T12:09:45;30.10;;;11.13;;
47772;SDS011;33534;51.028;13.716;2024-03-02T12:12:11;16.40;;;10.02;;
47772;SDS011;33534;51.028;13.716;2024-03-02T12:14:49;13.43;;;9.68;;
47772;SDS011;33534;51.028;13.716;2024-03-02T12:17:16;13.57;;;9.77;;
47772;SDS011;33534;51.028;13.716;2024-03-02T12:19:41;16.80;;;9.45;;
47772;SDS011;33534;51.028;13.716;2024-03-02T12:22:07;16.55;;;9.93;;
47772;SDS011;33534;51.028;13.716;2024-03-02T12:24:32;15.02;;;9.73;;
47772;SDS011;33534;51.028;13.716;2024-03-02T12:26:58;14.10;;;9.80;;
47772;SDS011;33534;51.028;13.716;2024-03-02T12:29:24;14.90;;;9.45;;
47772;SDS011;33534;51.028;13.716;2024-03-02T12:31:50;12.98;;;9.05;;
47772;SDS011;33534;51.028;13.716;2024-03-02T12:34:20;13.10;;;8.80;;
47772;SDS011;33534;51.028;13.716;2024-03-02T12:36:46;13.90;;;8.88;;
47772;SDS011;33534;51.028;13.716;2024-03-02T12:39:14;14.63;;;9.02;;
47772;SDS011;33534;51.028;13.716;2024-03-02T12:41:43;15.23;;;9.80;;
47772;SDS011;33534;51.028;13.716;2024-03-02T12:44:10;13.30;;;8.77;;
47772;SDS011;33534;51.028;13.716;2024-03-02T12:46:35;12.68;;;9.20;;
47772;SDS011;33534;51.028;13.716;2024-03-02T12:49:14;12.55;;;9.48;;
47772;SDS011;33534;51.028;13.716;2024-03-02T12:51:43;14.25;;;8.85;;
47772;SDS011;33534;51.028;13.716;2024-03-02T12:54:11;11.77;;;9.02;;
47772;SDS011;33534;51.028;13.716;2024-03-02T12:56:37;12.52;;;9.00;;
47772;SDS011;33534;51.028;13.716;2024-03-02T12:59:04;13.70;;;8.90;;
47772;SDS011;33534;51.028;13.716;2024-03-02T13:01:30;13.52;;;8.52;;
47772;SDS011;33534;51.028;13.716;2024-03-02T13:03:57;12.25;;;9.10;;
47772;SDS011;33534;51.028;13.716;2024-03-02T13:06:24;12.40;;;8.90;;
47772;SDS011;33534;51.028;13.716;2024-03-02T13:08:53;13.63;;;8.38;;
47772;SDS011;33534;51.028;13.716;2024-03-02T13:11:18;14.90;;;7.72;;
47772;SDS011;33534;51.028;13.716;2024-03-02T13:13:45;11.32;;;8.13;;
47772;SDS011;33534;51.028;13.716;2024-03-02T13:16:12;13.45;;;9.35;;
47772;SDS011;33534;51.028;13.716;2024-03-02T13:18:41;11.82;;;8.90;;
47772;SDS011;33534;51.028;13.716;2024-03-02T13:21:09;11.25;;;8.68;;
47772;SDS011;33534;51.028;13.716;2024-03-02T13:23:35;11.93;;;8.48;;
47772;SDS011;33534;51.028;13.716;2024-03-02T13:26:01;11.77;;;8.70;;
47772;SDS011;33534;51.028;13.716;2024-03-02T13:28:26;10.48;;;7.85;;
47772;SDS011;33534;51.028;13.716;2024-03-02T13:30:52;11.88;;;8.90;;
47772;SDS011;33534;51.028;13.716;2024-03-02T13:33:18;10.85;;;7.68;;
47772;SDS011;33534;51.028;13.716;2024-03-02T13:35:50;12.73;;;9.55;;
47772;SDS011;33534;51.028;13.716;2024-03-02T13:38:17;16.23;;;11.32;;
47772;SDS011;33534;51.028;13.716;2024-03-02T13:40:44;13.07;;;9.90;;
47772;SDS011;33534;51.028;13.716;2024-03-02T13:43:10;14.38;;;9.57;;
47772;SDS011;33534;51.028;13.716;2024-03-02T13:45:37;12.50;;;8.98;;
47772;SDS011;33534;51.028;13.716;2024-03-02T13:48:03;13.63;;;9.13;;
47772;SDS011;33534;51.028;13.716;2024-03-02T13:50:28;15.68;;;10.27;;
47772;SDS011;33534;51.028;13.716;2024-03-02T13:52:55;17.58;;;12.25;;
47772;SDS011;33534;51.028;13.716;2024-03-02T13:55:21;20.67;;;11.88;;
47772;SDS011;33534;51.028;13.716;2024-03-02T13:57:47;18.02;;;9.98;;
47772;SDS011;33534;51.028;13.716;2024-03-02T14:00:15;19.10;;;10.70;;
47772;SDS011;33534;51.028;13.716;2024-03-02T14:02:41;17.38;;;10.23;;
47772;SDS011;33534;51.028;13.716;2024-03-02T14:05:06;12.77;;;9.40;;
47772;SDS011;33534;51.028;13.716;2024-03-02T14:07:36;16.38;;;9.98;;
47772;SDS011;33534;51.028;13.716;2024-03-02T14:10:03;15.55;;;10.07;;
47772;SDS011;33534;51.028;13.716;2024-03-02T14:12:29;15.63;;;9.55;;
47772;SDS011;33534;51.028;13.716;2024-03-02T14:14:55;12.38;;;9.20;;
47772;SDS011;33534;51.028;13.716;2024-03-02T14:17:23;13.70;;;9.90;;